createdAt,value
2018-12-10T00:01:31.810Z,1.37
2018-12-10T00:04:13.206Z,1.73
2018-12-10T00:06:50.944Z,1.43
2018-12-10T00:09:24.753Z,1.40
2018-12-10T00:12:04.637Z,1.30
2018-12-10T00:14:42.617Z,1.50
2018-12-10T00:17:21.997Z,1.93
2018-12-10T00:19:56.057Z,1.40
2018-12-10T00:22:35.598Z,1.30
2018-12-10T00:25:14.960Z,1.50
2018-12-10T00:27:48.776Z,1.20
2018-12-10T00:30:22.154Z,1.60
2018-12-10T00:32:57.689Z,1.50
2018-12-10T00:35:33.907Z,1.73
2018-12-10T00:38:07.772Z,1.77
2018-12-10T00:40:41.373Z,2.00
2018-12-10T00:43:12.619Z,1.90
2018-12-10T00:45:48.373Z,1.93
2018-12-10T00:48:21.369Z,2.33
2018-12-10T00:51:01.054Z,2.13
2018-12-10T00:53:40.501Z,2.40
2018-12-10T00:56:18.621Z,2.40
2018-12-10T00:58:52.464Z,2.50
2018-12-10T01:01:25.782Z,2.50
2018-12-10T01:04:01.561Z,2.37
2018-12-10T01:06:33.382Z,2.50
2018-12-10T01:09:09.196Z,2.67
2018-12-10T01:11:45.321Z,2.53
2018-12-10T01:14:24.725Z,3.00
2018-12-10T01:17:04.068Z,2.43
2018-12-10T01:19:40.234Z,2.60
2018-12-10T01:22:13.974Z,2.53
2018-12-10T01:35:04.572Z,2.70
2018-12-10T01:40:10.301Z,2.43
2018-12-10T01:42:43.742Z,2.80
2018-12-10T01:45:15.260Z,2.90
2018-12-10T01:47:48.780Z,2.30
2018-12-10T01:50:22.141Z,2.67
2018-12-10T01:52:55.861Z,2.50
2018-12-10T01:55:29.374Z,2.10
2018-12-10T01:58:02.664Z,2.63
2018-12-10T02:00:38.323Z,2.80
2018-12-10T02:03:17.696Z,2.60
2018-12-10T02:05:49.548Z,2.30
2018-12-10T02:08:28.416Z,2.50
2018-12-10T02:11:02.292Z,2.50
2018-12-10T02:13:34.249Z,2.97
2018-12-10T02:16:07.568Z,2.53
2018-12-10T02:18:41.055Z,2.73
2018-12-10T02:21:16.923Z,3.00
2018-12-10T02:23:50.830Z,3.10
2018-12-10T02:26:26.693Z,3.20
2018-12-10T02:29:04.945Z,3.40
2018-12-10T02:31:38.881Z,2.90
2018-12-10T02:34:14.850Z,2.90
2018-12-10T02:36:52.938Z,3.60
2018-12-10T02:39:27.001Z,2.97
2018-12-10T02:42:00.186Z,3.07
2018-12-10T02:44:31.473Z,3.03
2018-12-10T02:47:06.966Z,3.17
2018-12-10T02:49:40.633Z,3.27
2018-12-10T02:52:20.115Z,2.87
2018-12-10T02:54:51.702Z,2.90
2018-12-10T02:57:30.029Z,3.07
2018-12-10T03:00:04.246Z,2.97
2018-12-10T03:02:41.020Z,3.10
2018-12-10T03:05:16.994Z,2.67
2018-12-10T03:07:50.877Z,3.00
2018-12-10T03:10:24.053Z,2.50
2018-12-10T03:12:57.302Z,2.63
2018-12-10T03:15:31.339Z,2.67
2018-12-10T03:18:09.135Z,2.43
2018-12-10T03:20:42.793Z,2.33
2018-12-10T03:23:18.182Z,2.37
2018-12-10T03:25:51.933Z,2.50
2018-12-10T03:28:25.147Z,2.30
2018-12-10T03:31:04.537Z,2.20
2018-12-10T03:33:38.492Z,2.23
2018-12-10T03:36:11.955Z,2.20
2018-12-10T03:38:45.116Z,2.10
2018-12-10T03:41:18.446Z,2.10
2018-12-10T03:43:53.815Z,2.03
2018-12-10T03:46:27.331Z,1.73
2018-12-10T03:49:02.706Z,2.00
2018-12-10T03:51:40.745Z,2.03
2018-12-10T03:54:16.717Z,1.90
2018-12-10T03:56:50.294Z,2.00
2018-12-10T03:59:23.480Z,2.10
2018-12-10T04:01:56.924Z,2.03
2018-12-10T04:04:30.873Z,1.93
2018-12-10T04:07:10.789Z,1.87
2018-12-10T04:09:46.858Z,2.20
2018-12-10T04:12:26.938Z,2.10
2018-12-10T04:15:04.184Z,2.23
2018-12-10T04:17:40.241Z,1.90
2018-12-10T04:20:13.932Z,1.57
2018-12-10T04:22:47.095Z,1.50
2018-12-10T04:25:22.357Z,1.73
2018-12-10T04:27:55.582Z,1.97
2018-12-10T04:30:29.101Z,1.90
2018-12-10T04:33:03.168Z,1.67
2018-12-10T04:35:36.341Z,1.63
2018-12-10T04:38:10.173Z,1.67
2018-12-10T04:40:43.710Z,1.57
2018-12-10T04:43:19.110Z,1.30
2018-12-10T04:45:53.063Z,1.30
2018-12-10T04:48:31.179Z,1.63
2018-12-10T04:51:05.085Z,1.60
2018-12-10T04:53:38.374Z,1.20
2018-12-10T04:56:11.602Z,1.40
2018-12-10T04:58:44.752Z,1.70
2018-12-10T05:01:18.297Z,1.53
2018-12-10T05:03:52.190Z,1.33
2018-12-10T05:06:26.169Z,1.50
2018-12-10T05:08:59.231Z,1.60
2018-12-10T05:11:32.554Z,1.60
2018-12-10T05:14:06.412Z,1.70
2018-12-10T05:16:48.067Z,1.70
2018-12-10T05:19:21.727Z,1.53
2018-12-10T05:22:01.026Z,1.83
2018-12-10T05:24:36.959Z,1.60
2018-12-10T05:27:10.675Z,1.60
2018-12-10T05:29:44.532Z,1.73
2018-12-10T05:32:17.996Z,1.70
2018-12-10T05:34:51.276Z,1.80
2018-12-10T05:37:30.723Z,2.07
2018-12-10T05:40:04.592Z,2.10
2018-12-10T05:42:36.230Z,2.13
2018-12-10T05:45:08.578Z,2.10
2018-12-10T05:50:11.459Z,2.20
2018-12-10T05:52:44.813Z,1.87
2018-12-10T05:55:17.836Z,2.13
2018-12-10T05:57:51.141Z,1.97
2018-12-10T06:00:26.744Z,2.27
2018-12-10T06:02:58.540Z,2.40
2018-12-10T06:05:32.201Z,2.10
2018-12-10T06:08:06.453Z,2.53
2018-12-10T06:10:40.465Z,2.50
2018-12-10T06:13:13.678Z,2.40
2018-12-10T06:15:46.806Z,2.50
2018-12-10T06:18:26.280Z,2.60
2018-12-10T06:21:02.472Z,2.23
2018-12-10T06:23:37.742Z,2.30
2018-12-10T06:26:11.509Z,2.20
2018-12-10T06:28:44.857Z,2.23
2018-12-10T06:31:18.069Z,2.17
2018-12-10T06:33:57.584Z,2.27
2018-12-10T06:36:31.338Z,2.53
2018-12-10T06:39:07.451Z,2.33
2018-12-10T06:41:41.329Z,2.10
2018-12-10T06:44:14.495Z,2.43
2018-12-10T06:46:47.973Z,2.60
2018-12-10T06:49:20.929Z,2.80
2018-12-10T06:51:54.112Z,2.83
2018-12-10T06:54:28.093Z,2.30
2018-12-10T06:59:34.388Z,2.43
2018-12-10T07:04:44.924Z,2.37
2018-12-10T07:07:24.396Z,2.60
2018-12-10T07:09:57.986Z,2.27
2018-12-10T07:12:31.050Z,2.30
2018-12-10T07:15:04.829Z,2.50
2018-12-10T07:17:45.712Z,2.60
2018-12-10T07:20:19.558Z,2.67
2018-12-10T07:22:57.781Z,2.53
2018-12-10T07:25:31.841Z,2.80
2018-12-10T07:28:08.035Z,2.60
2018-12-10T07:30:41.764Z,2.50
2018-12-10T07:33:16.046Z,3.00
2018-12-10T07:35:50.021Z,2.70
2018-12-10T07:38:21.495Z,2.30
2018-12-10T07:40:54.650Z,2.40
2018-12-10T07:43:34.137Z,2.53
2018-12-10T07:46:08.068Z,2.10
2018-12-10T07:48:41.719Z,2.40
2018-12-10T07:51:17.961Z,2.37
2018-12-10T07:53:56.221Z,2.50
2018-12-10T07:56:34.132Z,2.40
2018-12-10T07:59:07.593Z,2.23
2018-12-10T08:01:38.924Z,2.40
2018-12-10T08:04:12.887Z,2.13
2018-12-10T08:06:46.113Z,2.20
2018-12-10T08:09:20.152Z,2.20
2018-12-10T08:11:53.570Z,2.30
2018-12-10T08:14:33.157Z,2.27
2018-12-10T08:17:06.624Z,2.67
2018-12-10T08:19:42.814Z,2.10
2018-12-10T08:22:16.475Z,2.20
2018-12-10T08:24:49.975Z,2.67
2018-12-10T08:27:23.124Z,2.30
2018-12-10T08:29:56.501Z,2.33
2018-12-10T08:32:29.788Z,2.50
2018-12-10T08:35:05.326Z,2.67
2018-12-10T08:37:41.205Z,2.53
2018-12-10T08:40:15.276Z,2.40
2018-12-10T08:42:53.393Z,2.37
2018-12-10T08:45:26.976Z,2.33
2018-12-10T08:48:06.604Z,2.30
2018-12-10T08:50:42.017Z,2.60
2018-12-10T08:53:23.135Z,2.10
2018-12-10T08:55:59.617Z,2.30
2018-12-10T08:58:33.701Z,2.50
2018-12-10T09:01:09.261Z,2.40
2018-12-10T09:03:45.573Z,2.07
2018-12-10T09:08:52.238Z,2.47
2018-12-10T09:11:27.915Z,2.40
2018-12-10T09:14:01.904Z,2.50
2018-12-10T09:16:37.594Z,2.57
2018-12-10T09:19:13.898Z,2.40
2018-12-10T09:21:51.958Z,2.17
2018-12-10T09:24:30.377Z,3.13
2018-12-10T09:27:10.530Z,2.17
2018-12-10T09:29:42.557Z,2.13
2018-12-10T09:32:16.718Z,2.20
2018-12-10T09:34:50.257Z,1.97
2018-12-10T09:37:29.760Z,2.13
2018-12-10T09:40:03.874Z,3.07
2018-12-10T09:42:43.328Z,2.37
2018-12-10T09:45:21.543Z,2.03
2018-12-10T09:48:01.603Z,3.13
2018-12-10T09:50:36.199Z,2.03
2018-12-10T09:53:08.034Z,2.00
2018-12-10T09:55:41.344Z,2.27
2018-12-10T09:58:22.842Z,2.20
2018-12-10T10:01:02.976Z,1.97
2018-12-10T10:03:41.041Z,1.90
2018-12-10T10:06:19.300Z,1.70
2018-12-10T10:08:53.151Z,1.90
2018-12-10T10:11:33.004Z,1.60
2018-12-10T10:14:09.351Z,2.10
2018-12-10T10:16:43.286Z,1.77
2018-12-10T10:19:18.679Z,1.77
2018-12-10T10:21:54.189Z,1.70
2018-12-10T10:24:27.945Z,1.97
2018-12-10T10:27:07.807Z,1.83
2018-12-10T10:29:41.761Z,1.53
2018-12-10T10:32:15.195Z,1.50
2018-12-10T10:34:53.496Z,1.67
2018-12-10T10:37:32.796Z,1.43
2018-12-10T10:40:04.926Z,1.40
2018-12-10T10:42:40.486Z,1.60
2018-12-10T10:45:14.017Z,1.57
2018-12-10T10:47:49.613Z,1.90
2018-12-10T10:50:22.637Z,1.90
2018-12-10T10:52:56.112Z,1.63
2018-12-10T10:55:35.769Z,1.37
2018-12-10T10:58:12.018Z,1.40
2018-12-10T11:00:56.545Z,1.20
2018-12-10T11:03:40.180Z,1.40
2018-12-10T11:06:16.450Z,1.50
2018-12-10T11:08:50.083Z,1.37
2018-12-10T11:11:30.090Z,1.13
2018-12-10T11:16:39.661Z,1.60
2018-12-10T11:19:13.650Z,1.50
2018-12-10T11:21:54.475Z,1.67
2018-12-10T11:24:30.442Z,1.53
2018-12-10T11:27:04.405Z,1.43
2018-12-10T11:29:38.815Z,1.60
2018-12-10T11:32:15.307Z,1.50
2018-12-10T11:34:57.588Z,1.30
2018-12-10T11:37:31.086Z,1.50
2018-12-10T11:40:06.017Z,1.67
2018-12-10T11:42:42.233Z,1.70
2018-12-10T11:45:22.585Z,1.90
2018-12-10T11:48:02.718Z,1.57
2018-12-10T11:50:49.607Z,1.80
2018-12-10T11:53:29.643Z,1.83
2018-12-10T11:56:05.988Z,1.80
2018-12-10T11:58:40.648Z,2.00
2018-12-10T12:01:16.209Z,2.00
2018-12-10T12:03:47.294Z,1.97
2018-12-10T12:06:22.779Z,2.23
2018-12-10T12:08:55.949Z,2.40
2018-12-10T12:11:29.637Z,1.60
2018-12-10T12:14:09.962Z,1.87
2018-12-10T12:16:45.369Z,1.80
2018-12-10T12:21:47.177Z,1.73
2018-12-10T12:24:20.681Z,1.63
2018-12-10T12:26:58.929Z,1.80
2018-12-10T12:29:30.274Z,1.80
2018-12-10T12:32:03.786Z,2.10
2018-12-10T12:34:35.909Z,3.10
2018-12-10T12:37:11.441Z,4.40
2018-12-10T12:39:44.935Z,3.60
2018-12-10T12:42:16.509Z,1.57
2018-12-10T12:44:56.097Z,1.77
2018-12-10T12:47:27.886Z,1.60
2018-12-10T12:50:01.870Z,2.10
2018-12-10T12:52:33.115Z,2.50
2018-12-10T12:55:13.132Z,3.07
2018-12-10T12:57:49.553Z,3.87
2018-12-10T13:00:27.039Z,3.07
2018-12-10T13:03:00.550Z,3.90
2018-12-10T13:05:40.102Z,4.13
2018-12-10T13:08:18.574Z,4.97
2018-12-10T13:10:57.087Z,4.50
2018-12-10T13:13:37.238Z,5.43
2018-12-10T13:16:15.747Z,6.30
2018-12-10T13:18:49.576Z,5.23
2018-12-10T13:21:23.096Z,4.60
2018-12-10T13:26:37.991Z,10.80
2018-12-10T13:29:12.908Z,3.37
2018-12-10T13:31:48.776Z,2.90
2018-12-10T13:34:24.859Z,2.30
2018-12-10T13:36:58.678Z,4.10
2018-12-10T13:39:31.824Z,3.20
2018-12-10T13:42:11.654Z,3.07
2018-12-10T13:44:51.477Z,2.73
2018-12-10T13:47:31.268Z,2.73
2018-12-10T13:50:05.746Z,3.07
2018-12-10T13:52:41.820Z,3.00
2018-12-10T13:55:18.498Z,3.27
2018-12-10T13:57:58.231Z,3.40
2018-12-10T14:00:31.553Z,2.40
2018-12-10T14:03:09.913Z,2.87
2018-12-10T14:05:47.663Z,2.97
2018-12-10T14:08:26.274Z,2.70
2018-12-10T14:11:06.414Z,2.90
2018-12-10T14:13:44.964Z,3.40
2018-12-10T14:16:19.159Z,3.50
2018-12-10T14:18:54.773Z,3.10
2018-12-10T14:21:28.421Z,3.17
2018-12-10T14:24:07.852Z,3.07
2018-12-10T14:26:47.176Z,3.60
2018-12-10T14:29:20.549Z,2.77
2018-12-10T14:31:56.523Z,2.77
2018-12-10T14:34:36.550Z,3.03
2018-12-10T14:37:16.681Z,2.90
2018-12-10T14:39:51.313Z,2.77
2018-12-10T14:42:31.045Z,3.57
2018-12-10T14:45:09.439Z,2.40
2018-12-10T14:47:51.482Z,2.70
2018-12-10T14:50:27.668Z,2.63
2018-12-10T14:53:06.059Z,2.70
2018-12-10T14:55:40.937Z,2.67
2018-12-10T14:58:20.672Z,3.03
2018-12-10T15:00:54.580Z,2.33
2018-12-10T15:03:30.184Z,2.40
2018-12-10T15:06:06.438Z,2.80
2018-12-10T15:08:40.021Z,2.73
2018-12-10T15:11:13.177Z,2.83
2018-12-10T15:13:47.501Z,3.27
2018-12-10T15:16:22.661Z,2.47
2018-12-10T15:18:56.517Z,3.33
2018-12-10T15:21:30.246Z,3.57
2018-12-10T15:24:03.421Z,3.23
2018-12-10T15:26:42.920Z,3.73
2018-12-10T15:29:16.845Z,2.50
2018-12-10T15:31:50.073Z,3.00
2018-12-10T15:34:29.925Z,2.97
2018-12-10T15:37:03.591Z,2.77
2018-12-10T15:39:36.725Z,2.73
2018-12-10T15:42:09.958Z,3.53
2018-12-10T15:44:44.017Z,3.67
2018-12-10T15:47:23.345Z,3.70
2018-12-10T15:49:57.081Z,3.17
2018-12-10T15:52:35.297Z,3.13
2018-12-10T15:55:08.994Z,3.10
2018-12-10T15:57:47.249Z,3.50
2018-12-10T16:00:21.151Z,3.30
2018-12-10T16:02:57.441Z,2.53
2018-12-10T16:05:31.257Z,2.33
2018-12-10T16:08:03.168Z,3.23
2018-12-10T16:10:36.658Z,2.87
2018-12-10T16:13:09.845Z,2.40
2018-12-10T16:15:43.948Z,2.50
2018-12-10T16:18:16.988Z,3.00
2018-12-10T16:20:52.329Z,3.10
2018-12-10T16:23:26.103Z,2.70
2018-12-10T16:25:59.663Z,2.83
2018-12-10T16:28:33.739Z,2.90
2018-12-10T16:31:08.006Z,3.00
2018-12-10T16:33:42.808Z,3.00
2018-12-10T16:38:44.246Z,3.10
2018-12-10T16:46:26.373Z,3.67
2018-12-10T16:59:10.790Z,2.80
2018-12-10T17:01:50.106Z,3.10
2018-12-10T17:04:30.332Z,2.77
2018-12-10T17:07:04.346Z,2.97
2018-12-10T17:09:38.682Z,2.70
2018-12-10T17:12:12.820Z,2.00
2018-12-10T17:14:52.852Z,2.27
2018-12-10T17:17:32.987Z,2.23
2018-12-10T17:20:07.834Z,1.90
2018-12-10T17:22:41.050Z,1.80
2018-12-10T17:25:15.338Z,1.80
2018-12-10T17:27:50.126Z,1.73
2018-12-10T17:30:24.190Z,1.80
2018-12-10T17:32:59.759Z,2.00
2018-12-10T17:35:33.215Z,2.50
2018-12-10T17:38:12.581Z,2.37
2018-12-10T17:40:50.767Z,2.40
2018-12-10T17:43:24.555Z,2.20
2018-12-10T17:45:58.048Z,2.40
2018-12-10T17:48:31.946Z,2.40
2018-12-10T17:51:07.301Z,2.80
2018-12-10T17:53:45.508Z,3.20
2018-12-10T17:56:19.269Z,3.03
2018-12-10T17:58:54.201Z,2.90
2018-12-10T18:09:07.336Z,3.10
2018-12-10T18:11:42.102Z,2.70
2018-12-10T18:14:19.685Z,2.90
2018-12-10T18:16:53.578Z,3.63
2018-12-10T18:19:26.724Z,3.20
2018-12-10T18:21:59.793Z,3.50
2018-12-10T18:24:31.055Z,3.93
2018-12-10T18:27:08.567Z,3.73
2018-12-10T18:29:42.893Z,3.77
2018-12-10T18:32:16.621Z,3.77
2018-12-10T18:34:50.590Z,4.40
2018-12-10T18:37:25.556Z,5.60
2018-12-10T18:39:58.560Z,5.13
2018-12-10T18:42:32.497Z,5.00
2018-12-10T18:45:07.410Z,5.33
2018-12-10T18:47:46.983Z,5.17
2018-12-10T18:50:21.983Z,5.13
2018-12-10T18:52:55.871Z,5.63
2018-12-10T18:55:35.349Z,5.70
2018-12-10T18:58:13.356Z,6.20
2018-12-10T19:00:47.224Z,5.67
2018-12-10T19:03:26.721Z,5.97
2018-12-10T19:06:00.430Z,6.40
2018-12-10T19:08:33.989Z,6.50
2018-12-10T19:11:09.356Z,6.77
2018-12-10T19:13:43.473Z,6.90
2018-12-10T19:16:16.885Z,6.83
2018-12-10T19:18:50.856Z,7.00
2018-12-10T19:21:28.363Z,6.63
2018-12-10T19:24:02.308Z,6.93
2018-12-10T19:26:40.445Z,6.60
2018-12-10T19:29:13.961Z,7.00
2018-12-10T19:31:47.242Z,7.30
2018-12-10T19:34:20.612Z,7.70
2018-12-10T19:36:56.140Z,7.27
2018-12-10T19:39:29.879Z,7.53
2018-12-10T19:42:03.317Z,7.80
2018-12-10T19:44:38.757Z,8.30
2018-12-10T19:47:16.766Z,8.53
2018-12-10T19:49:51.390Z,7.50
2018-12-10T19:52:24.634Z,7.97
2018-12-10T19:54:57.954Z,8.53
2018-12-10T19:57:31.238Z,8.57
2018-12-10T20:00:05.316Z,8.90
2018-12-10T20:02:38.917Z,8.63
2018-12-10T20:05:12.960Z,9.57
2018-12-10T20:07:46.192Z,8.87
2018-12-10T20:10:20.122Z,8.07
2018-12-10T20:12:59.517Z,9.17
2018-12-10T20:15:34.166Z,8.27
2018-12-10T20:18:07.441Z,7.97
2018-12-10T20:20:40.597Z,8.20
2018-12-10T20:23:12.383Z,8.40
2018-12-10T20:25:46.022Z,7.83
2018-12-10T20:28:22.985Z,8.27
2018-12-10T20:30:57.035Z,7.80
2018-12-10T20:33:33.323Z,8.50
2018-12-10T20:36:09.789Z,9.17
2018-12-10T20:38:43.314Z,8.07
2018-12-10T20:41:16.537Z,8.33
2018-12-10T20:43:56.037Z,8.93
2018-12-10T20:46:29.884Z,9.33
2018-12-10T20:49:04.058Z,9.40
2018-12-10T20:51:37.270Z,8.33
2018-12-10T20:54:11.069Z,8.53
2018-12-10T20:56:46.494Z,8.90
2018-12-10T20:59:20.209Z,8.37
2018-12-10T21:01:53.287Z,8.53
2018-12-10T21:04:26.285Z,8.97
2018-12-10T21:06:59.398Z,8.30
2018-12-10T21:09:30.791Z,8.57
2018-12-10T21:12:04.332Z,9.00
2018-12-10T21:24:42.248Z,7.83
2018-12-10T21:27:18.181Z,7.53
2018-12-10T21:29:52.231Z,6.73
2018-12-10T21:32:30.619Z,6.73
2018-12-10T21:35:11.249Z,6.30
2018-12-10T21:37:49.110Z,5.77
2018-12-10T21:40:23.021Z,5.90
2018-12-10T21:42:56.359Z,5.40
2018-12-10T21:45:36.038Z,5.07
2018-12-10T21:48:15.456Z,5.07
2018-12-10T21:50:54.813Z,4.67
2018-12-10T21:53:28.782Z,4.33
2018-12-10T21:56:08.308Z,4.50
2018-12-10T21:58:42.161Z,4.50
2018-12-10T22:01:15.421Z,4.07
2018-12-10T22:03:54.871Z,4.27
2018-12-10T22:06:30.844Z,3.43
2018-12-10T22:09:07.148Z,3.80
2018-12-10T22:11:45.245Z,3.67
2018-12-10T22:14:19.080Z,4.07
2018-12-10T22:16:54.831Z,3.67
2018-12-10T22:19:27.859Z,2.90
2018-12-10T22:22:07.425Z,3.60
2018-12-10T22:24:45.558Z,2.90
2018-12-10T22:32:27.165Z,2.60
2018-12-10T22:34:59.096Z,2.53
2018-12-10T22:37:32.396Z,2.57
2018-12-10T22:40:06.282Z,3.00
2018-12-10T22:42:37.377Z,2.90
2018-12-10T22:45:15.475Z,2.87
2018-12-10T22:47:53.743Z,2.90
2018-12-10T22:50:29.253Z,2.70
2018-12-10T22:53:02.965Z,3.20
2018-12-10T22:55:40.801Z,2.73
2018-12-10T22:58:20.238Z,3.23
2018-12-10T23:00:53.763Z,3.27
2018-12-10T23:03:35.481Z,2.90
2018-12-10T23:06:14.836Z,3.17
2018-12-10T23:08:48.894Z,3.10
2018-12-10T23:11:28.488Z,3.17
2018-12-10T23:14:08.673Z,3.23
2018-12-10T23:16:42.637Z,3.73
2018-12-10T23:19:15.949Z,4.20
2018-12-10T23:21:49.225Z,3.83
2018-12-10T23:24:22.644Z,4.27
2018-12-10T23:27:03.435Z,4.87
2018-12-10T23:29:36.546Z,4.97
2018-12-10T23:32:11.956Z,4.73
2018-12-10T23:34:51.561Z,4.47
2018-12-10T23:37:27.779Z,5.20
2018-12-10T23:42:36.307Z,4.83
2018-12-10T23:45:12.537Z,4.80
2018-12-10T23:47:50.678Z,5.17
2018-12-10T23:50:24.689Z,5.10
2018-12-10T23:53:00.449Z,4.70
2018-12-10T23:55:39.756Z,5.50
2018-12-10T23:58:17.907Z,4.67
